sensor_id;sensor_type;location;lat;lon;timestamp;pressure;altitude;pressure_sealevel;temperature;humidity
62418;BME280;48456;54.242;10.280;2022-09-03T00:01:02;101745.75;;;14.81;100.00
62418;BME280;48456;54.242;10.280;2022-09-03T00:03:36;101744.00;;;14.79;100.00
62418;BME280;48456;54.242;10.280;2022-09-03T00:06:17;101739.56;;;14.75;100.00
62418;BME280;48456;54.242;10.280;2022-09-03T00:09:08;101739.53;;;14.78;100.00
62418;BME280;48456;54.242;10.280;2022-09-03T00:14:05;101736.88;;;14.78;100.00
62418;BME280;48456;54.242;10.280;2022-09-03T00:16:36;101742.25;;;14.76;100.00
62418;BME280;48456;54.242;10.280;2022-09-03T00:19:06;101738.66;;;14.74;100.00
62418;BME280;48456;54.242;10.280;2022-09-03T00:23:58;101742.22;;;14.70;100.00
62418;BME280;48456;54.242;10.280;2022-09-03T00:26:27;101744.00;;;14.71;100.00
62418;BME280;48456;54.242;10.280;2022-09-03T00:28:56;101731.56;;;14.72;100.00
62418;BME280;48456;54.242;10.280;2022-09-03T00:33:59;101740.44;;;14.77;100.00
62418;BME280;48456;54.242;10.280;2022-09-03T00:36:32;101738.66;;;14.76;100.00
62418;BME280;48456;54.242;10.280;2022-09-03T00:39:00;101733.31;;;14.76;100.00
62418;BME280;48456;54.242;10.280;2022-09-03T00:44:05;101737.75;;;14.75;100.00
62418;BME280;48456;54.242;10.280;2022-09-03T00:46:55;101733.31;;;14.76;100.00
62418;BME280;48456;54.242;10.280;2022-09-03T00:49:31;101736.91;;;14.72;100.00
62418;BME280;48456;54.242;10.280;2022-09-03T00:52:21;101732.47;;;14.72;100.00
62418;BME280;48456;54.242;10.280;2022-09-03T00:55:02;101723.59;;;14.68;100.00
62418;BME280;48456;54.242;10.280;2022-09-03T00:57:38;101729.81;;;14.71;100.00
62418;BME280;48456;54.242;10.280;2022-09-03T01:00:10;101731.56;;;14.72;100.00
62418;BME280;48456;54.242;10.280;2022-09-03T01:05:26;101729.81;;;14.72;100.00
62418;BME280;48456;54.242;10.280;2022-09-03T01:10:49;101722.69;;;14.69;100.00
62418;BME280;48456;54.242;10.280;2022-09-03T01:13:29;101720.94;;;14.67;100.00
62418;BME280;48456;54.242;10.280;2022-09-03T01:18:45;101722.75;;;14.60;100.00
62418;BME280;48456;54.242;10.280;2022-09-03T01:21:29;101722.75;;;14.62;100.00
62418;BME280;48456;54.242;10.280;2022-09-03T01:27:02;101720.09;;;14.62;100.00
62418;BME280;48456;54.242;10.280;2022-09-03T01:29:46;101722.75;;;14.62;100.00
62418;BME280;48456;54.242;10.280;2022-09-03T01:34:44;101719.22;;;14.61;100.00
62418;BME280;48456;54.242;10.280;2022-09-03T01:37:14;101723.66;;;14.59;100.00
62418;BME280;48456;54.242;10.280;2022-09-03T01:47:51;101725.44;;;14.59;100.00
62418;BME280;48456;54.242;10.280;2022-09-03T01:53:15;101724.56;;;14.58;100.00
62418;BME280;48456;54.242;10.280;2022-09-03T01:58:14;101726.38;;;14.53;100.00
62418;BME280;48456;54.242;10.280;2022-09-03T02:00:45;101721.06;;;14.50;100.00
62418;BME280;48456;54.242;10.280;2022-09-03T02:03:15;101719.31;;;14.46;100.00
62418;BME280;48456;54.242;10.280;2022-09-03T02:05:41;101721.13;;;14.42;100.00
62418;BME280;48456;54.242;10.280;2022-09-03T02:08:09;101714.91;;;14.41;100.00
62418;BME280;48456;54.242;10.280;2022-09-03T02:13:10;101716.72;;;14.33;100.00
62418;BME280;48456;54.242;10.280;2022-09-03T02:15:38;101715.84;;;14.29;100.00
62418;BME280;48456;54.242;10.280;2022-09-03T02:18:06;101722.97;;;14.23;100.00
62418;BME280;48456;54.242;10.280;2022-09-03T02:20:36;101726.53;;;14.20;100.00
62418;BME280;48456;54.242;10.280;2022-09-03T02:23:02;101709.69;;;14.20;100.00
62418;BME280;48456;54.242;10.280;2022-09-03T02:25:34;101715.88;;;14.20;100.00
62418;BME280;48456;54.242;10.280;2022-09-03T02:28:02;101708.81;;;14.16;100.00
62418;BME280;48456;54.242;10.280;2022-09-03T02:30:32;101715.03;;;14.12;100.00
62418;BME280;48456;54.242;10.280;2022-09-03T02:32:59;101714.16;;;14.08;100.00
62418;BME280;48456;54.242;10.280;2022-09-03T02:35:26;101713.31;;;14.06;100.00
62418;BME280;48456;54.242;10.280;2022-09-03T02:37:52;101718.63;;;14.06;100.00
62418;BME280;48456;54.242;10.280;2022-09-03T02:40:19;101716.84;;;14.05;100.00
62418;BME280;48456;54.242;10.280;2022-09-03T02:42:45;101707.09;;;14.06;100.00
62418;BME280;48456;54.242;10.280;2022-09-03T02:45:18;101704.44;;;14.09;100.00
62418;BME280;48456;54.242;10.280;2022-09-03T02:47:46;101701.75;;;14.10;100.00
62418;BME280;48456;54.242;10.280;2022-09-03T02:50:15;101701.75;;;14.10;100.00
62418;BME280;48456;54.242;10.280;2022-09-03T02:52:41;101701.75;;;14.07;100.00
62418;BME280;48456;54.242;10.280;2022-09-03T02:55:08;101700.91;;;14.00;100.00
62418;BME280;48456;54.242;10.280;2022-09-03T02:57:34;101698.25;;;13.97;100.00
62418;BME280;48456;54.242;10.280;2022-09-03T03:00:00;101693.84;;;13.92;100.00
62418;BME280;48456;54.242;10.280;2022-09-03T03:02:27;101698.31;;;13.88;100.00
62418;BME280;48456;54.242;10.280;2022-09-03T03:04:53;101701.84;;;13.84;100.00
62418;BME280;48456;54.242;10.280;2022-09-03T03:07:20;101699.19;;;13.82;100.00
62418;BME280;48456;54.242;10.280;2022-09-03T03:09:47;101700.09;;;13.76;100.00
62418;BME280;48456;54.242;10.280;2022-09-03T03:12:13;101699.25;;;13.74;100.00
62418;BME280;48456;54.242;10.280;2022-09-03T03:14:42;101701.03;;;13.66;100.00
62418;BME280;48456;54.242;10.280;2022-09-03T03:17:08;101708.16;;;13.59;100.00
62418;BME280;48456;54.242;10.280;2022-09-03T03:19:35;101703.72;;;13.54;100.00
62418;BME280;48456;54.242;10.280;2022-09-03T03:22:01;101706.38;;;13.52;100.00
62418;BME280;48456;54.242;10.280;2022-09-03T03:24:27;101704.56;;;13.46;100.00
62418;BME280;48456;54.242;10.280;2022-09-03T03:26:55;101701.94;;;13.38;100.00
62418;BME280;48456;54.242;10.280;2022-09-03T03:29:23;101705.47;;;13.30;100.00
62418;BME280;48456;54.242;10.280;2022-09-03T03:31:50;101703.72;;;13.22;100.00
62418;BME280;48456;54.242;10.280;2022-09-03T03:34:17;101703.72;;;13.15;100.00
62418;BME280;48456;54.242;10.280;2022-09-03T03:36:43;101701.97;;;13.10;100.00
62418;BME280;48456;54.242;10.280;2022-09-03T03:39:09;101703.75;;;13.05;100.00
62418;BME280;48456;54.242;10.280;2022-09-03T03:41:36;101701.97;;;13.01;100.00
62418;BME280;48456;54.242;10.280;2022-09-03T03:44:06;101704.59;;;12.96;100.00
62418;BME280;48456;54.242;10.280;2022-09-03T03:46:37;101706.41;;;12.85;100.00
62418;BME280;48456;54.242;10.280;2022-09-03T03:49:04;101703.72;;;12.74;100.00
62418;BME280;48456;54.242;10.280;2022-09-03T03:51:34;101709.00;;;12.66;100.00
62418;BME280;48456;54.242;10.280;2022-09-03T03:54:01;101714.31;;;12.58;100.00
62418;BME280;48456;54.242;10.280;2022-09-03T03:56:31;101712.50;;;12.50;100.00
62418;BME280;48456;54.242;10.280;2022-09-03T03:58:58;101718.69;;;12.39;100.00
62418;BME280;48456;54.242;10.280;2022-09-03T04:01:25;101715.13;;;12.32;100.00
62418;BME280;48456;54.242;10.280;2022-09-03T04:03:55;101713.34;;;12.25;100.00
62418;BME280;48456;54.242;10.280;2022-09-03T04:06:22;101720.41;;;12.20;100.00
62418;BME280;48456;54.242;10.280;2022-09-03T04:08:48;101717.72;;;12.14;100.00
62418;BME280;48456;54.242;10.280;2022-09-03T04:11:19;101731.84;;;12.08;100.00
62418;BME280;48456;54.242;10.280;2022-09-03T04:13:46;101723.84;;;12.03;100.00
62418;BME280;48456;54.242;10.280;2022-09-03T04:16:14;101727.31;;;11.96;100.00
62418;BME280;48456;54.242;10.280;2022-09-03T04:18:41;101729.06;;;11.89;100.00
62418;BME280;48456;54.242;10.280;2022-09-03T04:23:34;101724.59;;;11.82;100.00
62418;BME280;48456;54.242;10.280;2022-09-03T04:26:02;101733.44;;;11.79;100.00
62418;BME280;48456;54.242;10.280;2022-09-03T04:28:30;101730.75;;;11.73;100.00
62418;BME280;48456;54.242;10.280;2022-09-03T04:31:03;101733.38;;;11.65;100.00
62418;BME280;48456;54.242;10.280;2022-09-03T04:33:30;101736.88;;;11.61;100.00
62418;BME280;48456;54.242;10.280;2022-09-03T04:36:02;101740.38;;;11.55;100.00
62418;BME280;48456;54.242;10.280;2022-09-03T04:38:28;101735.03;;;11.52;100.00
62418;BME280;48456;54.242;10.280;2022-09-03T04:40:57;101740.31;;;11.49;100.00
62418;BME280;48456;54.242;10.280;2022-09-03T04:43:25;101732.34;;;11.48;100.00
62418;BME280;48456;54.242;10.280;2022-09-03T04:45:54;101736.72;;;11.41;100.00
62418;BME280;48456;54.242;10.280;2022-09-03T04:48:21;101743.75;;;11.37;100.00
62418;BME280;48456;54.242;10.280;2022-09-03T04:50:47;101739.31;;;11.33;100.00
62418;BME280;48456;54.242;10.280;2022-09-03T04:53:14;101738.44;;;11.31;100.00
62418;BME280;48456;54.242;10.280;2022-09-03T04:55:40;101738.41;;;11.29;100.00
62418;BME280;48456;54.242;10.280;2022-09-03T04:58:07;101745.41;;;11.24;100.00
62418;BME280;48456;54.242;10.280;2022-09-03T05:00:34;101742.78;;;11.24;100.00
62418;BME280;48456;54.242;10.280;2022-09-03T05:03:01;101742.78;;;11.24;100.00
62418;BME280;48456;54.242;10.280;2022-09-03T05:05:30;101734.81;;;11.24;100.00
62418;BME280;48456;54.242;10.280;2022-09-03T05:07:57;101742.78;;;11.23;100.00
62418;BME280;48456;54.242;10.280;2022-09-03T05:10:23;101745.38;;;11.18;100.00
62418;BME280;48456;54.242;10.280;2022-09-03T05:12:59;101743.59;;;11.15;100.00
62418;BME280;48456;54.242;10.280;2022-09-03T05:15:27;101747.13;;;11.13;100.00
62418;BME280;48456;54.242;10.280;2022-09-03T05:17:59;101755.06;;;11.13;100.00
62418;BME280;48456;54.242;10.280;2022-09-03T05:20:29;101754.19;;;11.14;100.00
62418;BME280;48456;54.242;10.280;2022-09-03T05:22:56;101756.81;;;11.14;100.00
62418;BME280;48456;54.242;10.280;2022-09-03T05:25:22;101760.38;;;11.17;100.00
62418;BME280;48456;54.242;10.280;2022-09-03T05:27:49;101759.50;;;11.20;100.00
62418;BME280;48456;54.242;10.280;2022-09-03T05:30:16;101763.97;;;11.23;100.00
62418;BME280;48456;54.242;10.280;2022-09-03T05:32:43;101763.16;;;11.31;100.00
62418;BME280;48456;54.242;10.280;2022-09-03T05:35:09;101759.72;;;11.42;100.00
62418;BME280;48456;54.242;10.280;2022-09-03T05:37:36;101769.50;;;11.54;100.00
62418;BME280;48456;54.242;10.280;2022-09-03T05:40:03;101754.56;;;11.65;100.00
62418;BME280;48456;54.242;10.280;2022-09-03T05:42:29;101761.69;;;11.76;100.00
62418;BME280;48456;54.242;10.280;2022-09-03T05:45:00;101760.00;;;11.86;100.00
62418;BME280;48456;54.242;10.280;2022-09-03T05:47:26;101753.84;;;11.96;100.00
62418;BME280;48456;54.242;10.280;2022-09-03T05:49:53;101748.63;;;12.08;100.00
62418;BME280;48456;54.242;10.280;2022-09-03T05:52:19;101744.25;;;12.18;100.00
62418;BME280;48456;54.242;10.280;2022-09-03T05:54:48;101746.06;;;12.30;100.00
62418;BME280;48456;54.242;10.280;2022-09-03T05:57:14;101751.44;;;12.40;100.00
62418;BME280;48456;54.242;10.280;2022-09-03T05:59:41;101751.47;;;12.51;100.00
62418;BME280;48456;54.242;10.280;2022-09-03T06:02:07;101748.84;;;12.63;100.00
62418;BME280;48456;54.242;10.280;2022-09-03T06:04:37;101745.31;;;12.73;100.00
62418;BME280;48456;54.242;10.280;2022-09-03T06:07:03;101760.38;;;12.89;100.00
62418;BME280;48456;54.242;10.280;2022-09-03T06:09:30;101744.47;;;12.99;100.00
62418;BME280;48456;54.242;10.280;2022-09-03T06:11:56;101753.31;;;13.16;100.00
62418;BME280;48456;54.242;10.280;2022-09-03T06:14:24;101748.88;;;13.35;100.00
62418;BME280;48456;54.242;10.280;2022-09-03T06:16:50;101749.78;;;13.62;100.00
62418;BME280;48456;54.242;10.280;2022-09-03T06:19:18;101751.47;;;13.99;100.00
62418;BME280;48456;54.242;10.280;2022-09-03T06:21:45;101749.56;;;14.31;100.00
62418;BME280;48456;54.242;10.280;2022-09-03T06:24:15;101746.78;;;14.52;100.00
62418;BME280;48456;54.242;10.280;2022-09-03T06:26:41;101746.66;;;14.77;100.00
62418;BME280;48456;54.242;10.280;2022-09-03T06:29:09;101745.69;;;14.86;100.00
62418;BME280;48456;54.242;10.280;2022-09-03T06:31:35;101749.16;;;14.99;100.00
62418;BME280;48456;54.242;10.280;2022-09-03T06:34:02;101745.59;;;15.03;100.00
62418;BME280;48456;54.242;10.280;2022-09-03T06:36:29;101744.75;;;14.98;100.00
62418;BME280;48456;54.242;10.280;2022-09-03T06:38:56;101744.75;;;15.00;100.00
62418;BME280;48456;54.242;10.280;2022-09-03T06:41:23;101747.44;;;14.93;100.00
62418;BME280;48456;54.242;10.280;2022-09-03T06:43:51;101741.22;;;14.93;100.00
62418;BME280;48456;54.242;10.280;2022-09-03T06:46:21;101742.94;;;14.99;100.00
62418;BME280;48456;54.242;10.280;2022-09-03T06:48:49;101746.44;;;15.07;100.00
62418;BME280;48456;54.242;10.280;2022-09-03T06:51:19;101750.81;;;15.16;100.00
62418;BME280;48456;54.242;10.280;2022-09-03T06:53:47;101735.66;;;15.21;100.00
62418;BME280;48456;54.242;10.280;2022-09-03T06:56:14;101740.03;;;15.30;100.00
62418;BME280;48456;54.242;10.280;2022-09-03T06:58:42;101738.13;;;15.44;100.00
62418;BME280;48456;54.242;10.280;2022-09-03T07:03:36;101749.38;;;15.73;100.00
62418;BME280;48456;54.242;10.280;2022-09-03T07:06:03;101753.66;;;15.94;100.00
62418;BME280;48456;54.242;10.280;2022-09-03T07:08:31;101752.59;;;16.06;100.00
62418;BME280;48456;54.242;10.280;2022-09-03T07:10:59;101763.91;;;16.29;100.00
62418;BME280;48456;54.242;10.280;2022-09-03T07:13:25;101754.78;;;16.47;100.00
62418;BME280;48456;54.242;10.280;2022-09-03T07:15:58;101758.25;;;16.52;100.00
62418;BME280;48456;54.242;10.280;2022-09-03T07:18:25;101757.13;;;16.69;100.00
62418;BME280;48456;54.242;10.280;2022-09-03T07:20:56;101759.03;;;16.59;100.00
62418;BME280;48456;54.242;10.280;2022-09-03T07:23:22;101752.03;;;16.52;100.00
62418;BME280;48456;54.242;10.280;2022-09-03T07:25:58;101750.13;;;16.58;100.00
62418;BME280;48456;54.242;10.280;2022-09-03T07:28:25;101756.19;;;16.73;100.00
62418;BME280;48456;54.242;10.280;2022-09-03T07:30:53;101755.94;;;16.88;100.00
62418;BME280;48456;54.242;10.280;2022-09-03T07:33:20;101752.28;;;16.94;100.00
62418;BME280;48456;54.242;10.280;2022-09-03T07:35:46;101751.19;;;17.08;100.00
62418;BME280;48456;54.242;10.280;2022-09-03T07:38:16;101751.97;;;17.16;100.00
62418;BME280;48456;54.242;10.280;2022-09-03T07:40:45;101751.84;;;17.24;100.00
62418;BME280;48456;54.242;10.280;2022-09-03T07:43:12;101750.78;;;17.33;100.00
62418;BME280;48456;54.242;10.280;2022-09-03T07:45:38;101740.75;;;17.47;100.00
62418;BME280;48456;54.242;10.280;2022-09-03T07:48:05;101747.81;;;17.51;100.00
62418;BME280;48456;54.242;10.280;2022-09-03T07:50:31;101757.53;;;17.56;100.00
62418;BME280;48456;54.242;10.280;2022-09-03T07:53:04;101751.13;;;17.64;100.00
62418;BME280;48456;54.242;10.280;2022-09-03T07:55:30;101751.63;;;17.85;100.00
62418;BME280;48456;54.242;10.280;2022-09-03T07:57:57;101746.34;;;17.80;100.00
62418;BME280;48456;54.242;10.280;2022-09-03T08:00:24;101752.31;;;17.95;100.00
62418;BME280;48456;54.242;10.280;2022-09-03T08:02:53;101745.84;;;18.05;100.00
62418;BME280;48456;54.242;10.280;2022-09-03T08:05:21;101746.56;;;18.17;100.00
62418;BME280;48456;54.242;10.280;2022-09-03T08:07:48;101740.75;;;18.37;100.00
62418;BME280;48456;54.242;10.280;2022-09-03T08:10:14;101741.25;;;18.55;100.00
62418;BME280;48456;54.242;10.280;2022-09-03T08:12:41;101739.63;;;18.49;100.00
62418;BME280;48456;54.242;10.280;2022-09-03T08:15:08;101739.56;;;18.51;100.00
62418;BME280;48456;54.242;10.280;2022-09-03T08:17:34;101732.34;;;18.54;100.00
62418;BME280;48456;54.242;10.280;2022-09-03T08:20:02;101736.03;;;18.49;100.00
62418;BME280;48456;54.242;10.280;2022-09-03T08:22:28;101742.63;;;18.34;100.00
62418;BME280;48456;54.242;10.280;2022-09-03T08:24:55;101747.56;;;18.11;100.00
62418;BME280;48456;54.242;10.280;2022-09-03T08:27:21;101744.41;;;17.89;100.00
62418;BME280;48456;54.242;10.280;2022-09-03T08:29:50;101742.16;;;17.67;100.00
62418;BME280;48456;54.242;10.280;2022-09-03T08:32:16;101746.06;;;17.49;100.00
62418;BME280;48456;54.242;10.280;2022-09-03T08:34:43;101752.53;;;17.35;100.00
62418;BME280;48456;54.242;10.280;2022-09-03T08:37:09;101742.69;;;17.39;100.00
62418;BME280;48456;54.242;10.280;2022-09-03T08:39:37;101745.00;;;17.58;100.00
62418;BME280;48456;54.242;10.280;2022-09-03T08:44:59;101746.56;;;18.17;100.00
62418;BME280;48456;54.242;10.280;2022-09-03T08:47:36;101737.13;;;18.40;100.00
62418;BME280;48456;54.242;10.280;2022-09-03T08:50:24;101731.31;;;18.62;100.00
62418;BME280;48456;54.242;10.280;2022-09-03T08:55:19;101727.97;;;18.88;90.37
62418;BME280;48456;54.242;10.280;2022-09-03T08:57:49;101730.28;;;19.05;91.96
62418;BME280;48456;54.242;10.280;2022-09-03T09:00:16;101733.66;;;19.14;83.23
62418;BME280;48456;54.242;10.280;2022-09-03T09:02:54;101734.16;;;19.28;80.73
62418;BME280;48456;54.242;10.280;2022-09-03T09:05:24;101735.84;;;19.32;76.27
62418;BME280;48456;54.242;10.280;2022-09-03T09:08:02;101744.84;;;19.30;78.47
62418;BME280;48456;54.242;10.280;2022-09-03T09:18:41;101744.31;;;19.50;79.45
62418;BME280;48456;54.242;10.280;2022-09-03T09:21:15;101735.59;;;19.42;73.14
62418;BME280;48456;54.242;10.280;2022-09-03T09:23:48;101733.16;;;19.32;72.18
62418;BME280;48456;54.242;10.280;2022-09-03T09:26:16;101738.28;;;19.42;73.43
62418;BME280;48456;54.242;10.280;2022-09-03T09:28:44;101728.19;;;19.52;71.53
62418;BME280;48456;54.242;10.280;2022-09-03T09:31:14;101730.56;;;19.63;70.71
62418;BME280;48456;54.242;10.280;2022-09-03T09:33:41;101735.16;;;19.59;69.60
62418;BME280;48456;54.242;10.280;2022-09-03T09:36:09;101725.91;;;19.69;69.65
62418;BME280;48456;54.242;10.280;2022-09-03T09:38:37;101730.50;;;19.66;68.63
62418;BME280;48456;54.242;10.280;2022-09-03T09:41:21;101729.59;;;19.65;68.83
62418;BME280;48456;54.242;10.280;2022-09-03T09:43:59;101734.63;;;19.78;67.59
62418;BME280;48456;54.242;10.280;2022-09-03T09:46:37;101732.09;;;19.73;66.63
62418;BME280;48456;54.242;10.280;2022-09-03T09:51:59;101731.91;;;19.79;66.56
62418;BME280;48456;54.242;10.280;2022-09-03T09:54:25;101727.81;;;19.99;68.09
62418;BME280;48456;54.242;10.280;2022-09-03T09:57:03;101729.28;;;20.09;66.70
62418;BME280;48456;54.242;10.280;2022-09-03T09:59:31;101721.22;;;20.09;70.15
62418;BME280;48456;54.242;10.280;2022-09-03T10:02:09;101726.44;;;20.16;66.51
62418;BME280;48456;54.242;10.280;2022-09-03T10:04:47;101727.63;;;20.05;65.95
62418;BME280;48456;54.242;10.280;2022-09-03T10:07:29;101721.81;;;19.87;65.10
62418;BME280;48456;54.242;10.280;2022-09-03T10:12:29;101721.00;;;20.47;72.79
62418;BME280;48456;54.242;10.280;2022-09-03T10:15:02;101723.16;;;20.34;64.50
62418;BME280;48456;54.242;10.280;2022-09-03T10:17:41;101723.72;;;20.46;61.80
62418;BME280;48456;54.242;10.280;2022-09-03T10:20:10;101720.41;;;20.37;61.23
62418;BME280;48456;54.242;10.280;2022-09-03T10:25:24;101709.38;;;20.17;62.84
62418;BME280;48456;54.242;10.280;2022-09-03T10:27:51;101713.41;;;20.32;65.24
62418;BME280;48456;54.242;10.280;2022-09-03T10:30:24;101707.25;;;20.28;62.70
62418;BME280;48456;54.242;10.280;2022-09-03T10:32:56;101702.41;;;20.39;64.12
62418;BME280;48456;54.242;10.280;2022-09-03T10:35:28;101708.81;;;20.35;60.85
62418;BME280;48456;54.242;10.280;2022-09-03T10:40:35;101703.59;;;20.88;62.80
62418;BME280;48456;54.242;10.280;2022-09-03T10:46:25;101692.38;;;21.78;52.77
62418;BME280;48456;54.242;10.280;2022-09-03T10:51:40;101697.94;;;21.74;48.48
62418;BME280;48456;54.242;10.280;2022-09-03T10:54:33;101694.66;;;21.89;48.76
62418;BME280;48456;54.242;10.280;2022-09-03T10:57:14;101694.66;;;21.89;47.67
62418;BME280;48456;54.242;10.280;2022-09-03T10:59:57;101694.41;;;22.19;49.22
62418;BME280;48456;54.242;10.280;2022-09-03T11:05:00;101695.19;;;23.33;43.29
62418;BME280;48456;54.242;10.280;2022-09-03T11:07:37;101679.03;;;23.73;41.09
62418;BME280;48456;54.242;10.280;2022-09-03T11:12:45;101668.44;;;24.07;39.60
62418;BME280;48456;54.242;10.280;2022-09-03T11:15:23;101668.63;;;23.64;39.96
62418;BME280;48456;54.242;10.280;2022-09-03T11:18:03;101679.63;;;23.40;40.68
62418;BME280;48456;54.242;10.280;2022-09-03T11:20:33;101671.66;;;23.37;40.83
62418;BME280;48456;54.242;10.280;2022-09-03T11:23:02;101674.81;;;23.87;40.03
62418;BME280;48456;54.242;10.280;2022-09-03T11:25:31;101661.63;;;23.60;40.48
62418;BME280;48456;54.242;10.280;2022-09-03T11:30:33;101657.81;;;22.60;41.06
62418;BME280;48456;54.242;10.280;2022-09-03T11:33:06;101665.78;;;22.39;41.51
62418;BME280;48456;54.242;10.280;2022-09-03T11:38:02;101663.97;;;21.93;43.28
62418;BME280;48456;54.242;10.280;2022-09-03T11:40:31;101673.94;;;22.15;45.39
62418;BME280;48456;54.242;10.280;2022-09-03T11:43:12;101662.47;;;22.32;43.75
62418;BME280;48456;54.242;10.280;2022-09-03T11:45:39;101666.59;;;22.19;42.94
62418;BME280;48456;54.242;10.280;2022-09-03T11:48:16;101665.28;;;22.07;43.18
62418;BME280;48456;54.242;10.280;2022-09-03T11:50:51;101649.50;;;22.42;43.13
62418;BME280;48456;54.242;10.280;2022-09-03T11:55:52;101654.66;;;24.70;36.62
62418;BME280;48456;54.242;10.280;2022-09-03T11:58:23;101650.22;;;25.04;35.11
62418;BME280;48456;54.242;10.280;2022-09-03T12:00:50;101661.78;;;24.16;36.53
62418;BME280;48456;54.242;10.280;2022-09-03T12:04:03;101647.03;;;23.64;36.41
62418;BME280;48456;54.242;10.280;2022-09-03T12:06:19;101636.50;;;24.72;36.20
62418;BME280;48456;54.242;10.280;2022-09-03T12:11:31;101635.97;;;26.02;33.27
62418;BME280;48456;54.242;10.280;2022-09-03T12:19:36;101633.47;;;27.23;31.77
62418;BME280;48456;54.242;10.280;2022-09-03T12:22:05;101617.94;;;26.94;31.01
62418;BME280;48456;54.242;10.280;2022-09-03T12:24:31;101618.81;;;26.50;32.03
62418;BME280;48456;54.242;10.280;2022-09-03T12:27:03;101634.97;;;25.71;33.62
62418;BME280;48456;54.242;10.280;2022-09-03T12:29:30;101627.00;;;25.00;34.42
62418;BME280;48456;54.242;10.280;2022-09-03T12:32:04;101626.63;;;24.53;35.07
62418;BME280;48456;54.242;10.280;2022-09-03T12:34:32;101617.69;;;25.39;35.30
62418;BME280;48456;54.242;10.280;2022-09-03T12:36:58;101609.94;;;25.99;34.04
62418;BME280;48456;54.242;10.280;2022-09-03T12:39:25;101608.94;;;26.32;33.49
62418;BME280;48456;54.242;10.280;2022-09-03T12:42:14;101614.72;;;26.10;33.11
62418;BME280;48456;54.242;10.280;2022-09-03T12:44:44;101619.03;;;26.30;32.92
62418;BME280;48456;54.242;10.280;2022-09-03T12:47:12;101620.41;;;25.55;33.68
62418;BME280;48456;54.242;10.280;2022-09-03T12:50:03;101618.47;;;24.90;35.14
62418;BME280;48456;54.242;10.280;2022-09-03T12:52:32;101604.09;;;24.70;33.80
62418;BME280;48456;54.242;10.280;2022-09-03T12:57:29;101611.59;;;25.52;33.87
62418;BME280;48456;54.242;10.280;2022-09-03T12:59:59;101601.34;;;26.39;32.59
62418;BME280;48456;54.242;10.280;2022-09-03T13:02:31;101586.59;;;26.43;31.64
62418;BME280;48456;54.242;10.280;2022-09-03T13:05:02;101600.16;;;26.59;31.94
62418;BME280;48456;54.242;10.280;2022-09-03T13:07:30;101605.81;;;25.42;33.69
62418;BME280;48456;54.242;10.280;2022-09-03T13:10:05;101614.09;;;25.73;33.74
62418;BME280;48456;54.242;10.280;2022-09-03T13:12:42;101604.25;;;25.72;33.39
62418;BME280;48456;54.242;10.280;2022-09-03T13:15:20;101595.78;;;26.57;33.14
62418;BME280;48456;54.242;10.280;2022-09-03T13:17:52;101603.13;;;26.85;31.64
62418;BME280;48456;54.242;10.280;2022-09-03T13:20:41;101590.03;;;26.47;32.34
62418;BME280;48456;54.242;10.280;2022-09-03T13:25:55;101597.56;;;26.10;33.60
62418;BME280;48456;54.242;10.280;2022-09-03T13:33:40;101598.00;;;23.54;38.95
62418;BME280;48456;54.242;10.280;2022-09-03T13:36:22;101605.41;;;23.68;37.95
62418;BME280;48456;54.242;10.280;2022-09-03T13:38:55;101599.66;;;24.51;35.70
62418;BME280;48456;54.242;10.280;2022-09-03T13:46:40;101587.38;;;23.09;37.57
62418;BME280;48456;54.242;10.280;2022-09-03T13:55:00;101594.66;;;22.66;38.30
62418;BME280;48456;54.242;10.280;2022-09-03T13:57:39;101590.41;;;23.62;37.48
62418;BME280;48456;54.242;10.280;2022-09-03T14:00:12;101583.78;;;24.07;35.70
62418;BME280;48456;54.242;10.280;2022-09-03T14:02:48;101593.38;;;23.95;36.27
62418;BME280;48456;54.242;10.280;2022-09-03T14:15:41;101579.38;;;23.86;36.20
62418;BME280;48456;54.242;10.280;2022-09-03T14:20:57;101580.78;;;24.68;37.98
62418;BME280;48456;54.242;10.280;2022-09-03T14:23:31;101584.88;;;24.76;36.23
62418;BME280;48456;54.242;10.280;2022-09-03T14:26:01;101583.50;;;24.68;34.62
62418;BME280;48456;54.242;10.280;2022-09-03T14:28:42;101580.84;;;24.31;35.82
62418;BME280;48456;54.242;10.280;2022-09-03T14:31:26;101577.81;;;24.00;35.10
62418;BME280;48456;54.242;10.280;2022-09-03T14:36:34;101574.75;;;24.62;33.67
62418;BME280;48456;54.242;10.280;2022-09-03T14:39:11;101575.41;;;25.03;33.10
62418;BME280;48456;54.242;10.280;2022-09-03T14:46:54;101569.88;;;25.22;32.53
62418;BME280;48456;54.242;10.280;2022-09-03T14:52:21;101565.97;;;26.41;32.63
62418;BME280;48456;54.242;10.280;2022-09-03T14:54:57;101560.28;;;25.49;32.93
62418;BME280;48456;54.242;10.280;2022-09-03T15:12:52;101567.25;;;22.32;38.23
62418;BME280;48456;54.242;10.280;2022-09-03T15:15:21;101571.66;;;22.35;39.15
62418;BME280;48456;54.242;10.280;2022-09-03T15:20:40;101570.78;;;21.89;40.32
62418;BME280;48456;54.242;10.280;2022-09-03T15:36:14;101571.03;;;21.35;47.13
62418;BME280;48456;54.242;10.280;2022-09-03T15:39:00;101572.03;;;21.33;45.26
62418;BME280;48456;54.242;10.280;2022-09-03T15:44:14;101576.63;;;21.05;45.01